Terminal Aerodrome Forecast
Issued by NWS

Home | Current Version | Previous Version | Text Only | Print | Product List | Glossary On
Versions: 1 2 3 4 5 6 7 8 9 10 11 12 13 14
326
FTUS45 KABQ 232339
TAFFMN
TAF
KFMN 232339Z 2400/2424 29011KT P6SM VCSH SCT015 BKN050
      TEMPO 2405/2409 29015G25KT 4SM -SN SCT007 OVC015
     FM240900 29016G26KT P6SM VCSH SCT007 BKN015
     FM241200 29015G25KT P6SM SCT015
     FM242200 28014KT P6SM SCT200=

USA.gov is the U.S. government's official web portal to all federal, state and local government web resources and services.